Time;durP1;ratioP1;P1;durP2;ratioP2;P2;SDS_P1;SDS_P2;PMS_P1;PMS_P2;Temp;Humidity;BMP_temperature;BMP_pressure;BME280_temperature;BME280_humidity;BME280_pressure;Samples;Min_cycle;Max_cycle;Signal;HPM_P1;HPM_P2
2021/06/19 00:00:13;;;;;;;24.83;18.80;;;;;;;;;;4420720;32;20228;-71
2021/06/19 00:02:38;;;;;;;25.75;16.73;;;;;;;;;;4420006;32;20138;-70
2021/06/19 00:05:04;;;;;;;23.75;16.40;;;;;;;;;;4421797;32;20191;-70
2021/06/19 00:07:29;;;;;;;25.88;17.00;;;;;;;;;;4421776;32;20165;-70
2021/06/19 00:09:54;;;;;;;23.92;14.90;;;;;;;;;;4408083;32;20200;-71
2021/06/19 00:12:20;;;;;;;23.33;15.35;;;;;;;;;;4422817;32;20225;-71
2021/06/19 00:14:45;;;;;;;21.42;14.55;;;;;;;;;;4426175;32;20311;-71
2021/06/19 00:17:11;;;;;;;23.92;16.33;;;;;;;;;;4425518;32;20207;-70
2021/06/19 00:19:36;;;;;;;22.77;15.63;;;;;;;;;;4409851;32;20157;-70
2021/06/19 00:22:01;;;;;;;20.20;15.30;;;;;;;;;;4412779;32;20208;-71
2021/06/19 00:24:26;;;;;;;21.70;13.40;;;;;;;;;;4411579;32;20362;-71
2021/06/19 00:26:52;;;;;;;20.77;14.80;;;;;;;;;;4425505;32;20257;-71
2021/06/19 00:29:17;;;;;;;20.30;14.13;;;;;;;;;;4427855;32;20257;-71
2021/06/19 00:31:43;;;;;;;23.52;14.57;;;;;;;;;;4421292;32;20252;-71
2021/06/19 00:34:08;;;;;;;22.40;14.63;;;;;;;;;;4417293;32;20222;-70
2021/06/19 00:36:33;;;;;;;19.73;14.50;;;;;;;;;;4426677;32;20891;-70
2021/06/19 00:38:59;;;;;;;23.15;13.88;;;;;;;;;;4419041;32;20146;-72
2021/06/19 00:41:24;;;;;;;19.57;10.93;;;;;;;;;;4398808;32;20197;-70
2021/06/19 00:43:49;;;;;;;16.70;10.88;;;;;;;;;;4424918;32;20275;-70
2021/06/19 00:46:14;;;;;;;15.90;9.98;;;;;;;;;;4414734;32;20142;-72
2021/06/19 00:48:39;;;;;;;14.68;10.60;;;;;;;;;;4421457;32;20146;-70
2021/06/19 00:51:05;;;;;;;15.80;10.98;;;;;;;;;;4412062;32;20212;-70
2021/06/19 00:53:32;;;;;;;19.02;10.68;;;;;;;;;;4413143;32;20146;-70
2021/06/19 00:55:57;;;;;;;15.27;10.50;;;;;;;;;;4425247;32;20593;-70
2021/06/19 00:58:23;;;;;;;14.63;10.73;;;;;;;;;;4399051;32;20287;-71
2021/06/19 01:00:48;;;;;;;15.88;12.13;;;;;;;;;;4413971;32;20176;-71
2021/06/19 01:03:13;;;;;;;13.15;10.27;;;;;;;;;;4421589;32;21239;-70
2021/06/19 01:05:38;;;;;;;15.70;10.85;;;;;;;;;;4423587;32;20263;-70
2021/06/19 01:08:03;;;;;;;16.95;11.45;;;;;;;;;;4408528;32;20245;-71
2021/06/19 01:10:29;;;;;;;16.27;11.82;;;;;;;;;;4423351;32;20252;-71
2021/06/19 01:12:54;;;;;;;15.40;12.30;;;;;;;;;;4423298;32;20611;-71
2021/06/19 01:15:20;;;;;;;16.83;12.48;;;;;;;;;;4422844;32;20186;-70
2021/06/19 01:17:45;;;;;;;17.02;12.85;;;;;;;;;;4421706;32;20156;-70
2021/06/19 01:20:13;;;;;;;15.73;12.85;;;;;;;;;;4422258;32;20169;-71
2021/06/19 01:22:40;;;;;;;12.60;9.80;;;;;;;;;;4421936;32;20206;-70
2021/06/19 01:25:10;;;;;;;14.63;9.07;;;;;;;;;;4416902;32;20165;-70
2021/06/19 01:27:36;;;;;;;12.98;9.70;;;;;;;;;;4425872;32;20157;-70
2021/06/19 01:30:05;;;;;;;13.57;10.95;;;;;;;;;;4414688;32;20141;-70
2021/06/19 01:32:35;;;;;;;21.77;17.05;;;;;;;;;;4411655;32;20158;-70
2021/06/19 01:35:00;;;;;;;27.37;21.42;;;;;;;;;;4417824;32;20226;-70
2021/06/19 01:37:27;;;;;;;29.05;21.80;;;;;;;;;;4409312;32;20481;-69
2021/06/19 01:40:01;;;;;;;29.30;22.65;;;;;;;;;;4400896;32;20224;-70
2021/06/19 01:42:26;;;;;;;36.40;28.35;;;;;;;;;;4409501;32;20162;-70
2021/06/19 01:44:51;;;;;;;32.13;21.52;;;;;;;;;;4405982;32;20231;-70
2021/06/19 01:47:16;;;;;;;30.92;19.98;;;;;;;;;;4397611;32;20264;-70
2021/06/19 01:49:42;;;;;;;29.40;23.58;;;;;;;;;;4414511;32;20760;-70
2021/06/19 01:52:07;;;;;;;30.77;22.25;;;;;;;;;;4406285;32;20162;-69
2021/06/19 01:54:39;;;;;;;35.20;25.50;;;;;;;;;;4421219;32;20177;-70
2021/06/19 01:57:05;;;;;;;37.13;25.02;;;;;;;;;;4422347;32;20447;-69
2021/06/19 01:59:30;;;;;;;37.28;24.98;;;;;;;;;;4423993;32;20130;-70
2021/06/19 02:01:58;;;;;;;36.83;24.85;;;;;;;;;;4424323;32;20244;-69
2021/06/19 02:04:24;;;;;;;40.03;28.85;;;;;;;;;;4421079;32;20198;-70
2021/06/19 02:06:49;;;;;;;46.03;28.05;;;;;;;;;;4407879;32;20665;-70
2021/06/19 02:09:14;;;;;;;44.27;26.80;;;;;;;;;;4420869;32;20146;-70
2021/06/19 02:11:39;;;;;;;44.92;31.15;;;;;;;;;;4425263;32;20317;-70
2021/06/19 02:14:05;;;;;;;47.08;27.75;;;;;;;;;;4410934;32;20503;-70
2021/06/19 02:16:30;;;;;;;43.45;28.58;;;;;;;;;;4426219;32;20315;-70
2021/06/19 02:18:55;;;;;;;47.72;33.33;;;;;;;;;;4423932;32;20160;-70
2021/06/19 02:21:20;;;;;;;46.57;28.83;;;;;;;;;;4410669;32;20165;-70
2021/06/19 02:23:45;;;;;;;51.25;32.03;;;;;;;;;;4407171;32;20680;-69
2021/06/19 02:26:11;;;;;;;63.50;36.87;;;;;;;;;;4412225;32;20164;-70
2021/06/19 02:28:36;;;;;;;76.63;45.43;;;;;;;;;;4422473;32;20347;-70
2021/06/19 02:31:01;;;;;;;85.57;47.47;;;;;;;;;;4415804;32;20245;-69
2021/06/19 02:33:26;;;;;;;87.30;47.40;;;;;;;;;;4411683;32;20317;-70
2021/06/19 02:35:52;;;;;;;86.05;47.88;;;;;;;;;;4409610;32;20253;-69
2021/06/19 02:38:18;;;;;;;87.07;47.03;;;;;;;;;;4392957;32;20739;-69
2021/06/19 02:40:44;;;;;;;81.80;47.40;;;;;;;;;;4414368;32;20205;-70
2021/06/19 02:43:10;;;;;;;80.32;42.30;;;;;;;;;;4422160;32;20149;-70
2021/06/19 02:45:36;;;;;;;77.12;42.95;;;;;;;;;;4422821;32;20167;-69
2021/06/19 02:48:01;;;;;;;77.65;43.58;;;;;;;;;;4422929;32;20207;-69
2021/06/19 02:50:27;;;;;;;85.35;44.80;;;;;;;;;;4421210;32;20170;-69
2021/06/19 02:52:54;;;;;;;86.70;45.20;;;;;;;;;;4406280;32;20645;-70
2021/06/19 02:55:21;;;;;;;87.65;46.40;;;;;;;;;;4420946;32;20142;-70
2021/06/19 02:57:46;;;;;;;93.53;49.45;;;;;;;;;;4421881;32;20264;-70
2021/06/19 03:00:13;;;;;;;106.78;54.50;;;;;;;;;;4422125;32;20203;-70
2021/06/19 03:02:38;;;;;;;102.70;51.58;;;;;;;;;;4421189;32;20142;-70
2021/06/19 03:05:06;;;;;;;103.00;52.17;;;;;;;;;;4422041;32;20171;-70
2021/06/19 03:07:32;;;;;;;108.90;56.13;;;;;;;;;;4420648;32;20150;-70
2021/06/19 03:09:57;;;;;;;119.18;59.60;;;;;;;;;;4419914;32;20876;-69
2021/06/19 03:12:22;;;;;;;125.30;57.70;;;;;;;;;;4422439;32;20640;-69
2021/06/19 03:14:48;;;;;;;118.87;56.37;;;;;;;;;;4422137;32;20133;-69
2021/06/19 03:17:13;;;;;;;117.78;57.05;;;;;;;;;;4420448;32;20260;-70
2021/06/19 03:19:39;;;;;;;130.63;62.30;;;;;;;;;;4407065;32;20468;-69
2021/06/19 03:22:04;;;;;;;112.25;53.03;;;;;;;;;;4422799;32;20280;-70
2021/06/19 03:24:29;;;;;;;131.02;61.88;;;;;;;;;;4422648;32;20133;-70
2021/06/19 03:26:54;;;;;;;124.70;58.15;;;;;;;;;;4422260;32;20138;-69
2021/06/19 03:29:19;;;;;;;129.35;64.75;;;;;;;;;;4407980;32;20265;-71
2021/06/19 03:31:45;;;;;;;119.45;61.20;;;;;;;;;;4423100;32;20134;-70
2021/06/19 03:34:10;;;;;;;118.40;59.47;;;;;;;;;;4423273;32;20137;-70
2021/06/19 03:36:35;;;;;;;122.97;61.00;;;;;;;;;;4423455;32;20312;-69
2021/06/19 03:39:00;;;;;;;105.90;49.67;;;;;;;;;;4409515;32;20247;-70
2021/06/19 03:41:25;;;;;;;129.18;61.58;;;;;;;;;;4421400;32;20607;-70
2021/06/19 03:43:50;;;;;;;101.70;49.35;;;;;;;;;;4422356;32;20924;-69
2021/06/19 03:46:16;;;;;;;105.82;50.40;;;;;;;;;;4417032;32;21041;-70
2021/06/19 03:48:41;;;;;;;106.70;51.17;;;;;;;;;;4422060;32;20174;-70
2021/06/19 03:51:06;;;;;;;91.60;46.20;;;;;;;;;;4393127;32;20213;-70
2021/06/19 03:53:31;;;;;;;105.68;49.75;;;;;;;;;;4406260;32;20376;-70
2021/06/19 03:55:56;;;;;;;111.55;49.20;;;;;;;;;;4416741;32;20267;-70
2021/06/19 03:58:21;;;;;;;99.45;48.40;;;;;;;;;;4419758;32;20466;-70
2021/06/19 04:00:47;;;;;;;94.62;46.45;;;;;;;;;;4408765;32;20162;-70
2021/06/19 04:03:12;;;;;;;107.57;54.63;;;;;;;;;;4424512;32;20295;-70
2021/06/19 04:05:37;;;;;;;104.13;52.77;;;;;;;;;;4423062;32;20142;-70
2021/06/19 04:08:02;;;;;;;66.25;34.20;;;;;;;;;;4422269;32;20252;-70
2021/06/19 04:10:27;;;;;;;64.65;35.63;;;;;;;;;;4424521;32;20233;-69
2021/06/19 04:12:53;;;;;;;51.60;31.15;;;;;;;;;;4424728;32;20625;-70
2021/06/19 04:15:19;;;;;;;48.28;26.08;;;;;;;;;;4424514;32;20263;-69
2021/06/19 04:17:44;;;;;;;48.60;24.93;;;;;;;;;;4424420;32;20149;-69
2021/06/19 04:20:10;;;;;;;46.70;26.73;;;;;;;;;;4412076;32;21120;-70
2021/06/19 04:22:36;;;;;;;42.15;25.85;;;;;;;;;;4425456;32;20188;-69
2021/06/19 04:25:01;;;;;;;50.10;28.50;;;;;;;;;;4425000;32;20141;-69
2021/06/19 04:27:27;;;;;;;45.45;26.05;;;;;;;;;;4418457;32;20160;-69
2021/06/19 04:29:52;;;;;;;43.20;23.75;;;;;;;;;;4410931;32;20277;-69
2021/06/19 04:32:18;;;;;;;43.83;23.90;;;;;;;;;;4417117;32;20263;-69
2021/06/19 04:34:43;;;;;;;42.03;25.95;;;;;;;;;;4416892;32;20188;-70
2021/06/19 04:37:09;;;;;;;44.70;23.98;;;;;;;;;;4408363;32;20926;-69
2021/06/19 04:39:38;;;;;;;42.90;23.60;;;;;;;;;;4408601;32;20563;-69
2021/06/19 04:42:06;;;;;;;45.35;22.90;;;;;;;;;;4409442;32;20559;-69
2021/06/19 04:47:15;;;;;;;37.10;21.80;;;;;;;;;;4415314;32;20171;-70
2021/06/19 04:49:40;;;;;;;40.67;21.23;;;;;;;;;;4418541;32;20165;-70
2021/06/19 04:52:06;;;;;;;42.97;24.67;;;;;;;;;;4425054;32;20268;-70
2021/06/19 04:54:37;;;;;;;39.88;21.45;;;;;;;;;;4412568;32;20260;-70
2021/06/19 04:57:02;;;;;;;39.40;22.35;;;;;;;;;;4426708;32;20172;-70
2021/06/19 04:59:27;;;;;;;39.17;22.75;;;;;;;;;;4428391;32;20150;-70
2021/06/19 05:01:53;;;;;;;40.40;24.47;;;;;;;;;;4426583;32;20616;-69
2021/06/19 05:04:18;;;;;;;39.70;21.98;;;;;;;;;;4423497;32;20237;-69
2021/06/19 05:06:43;;;;;;;35.60;22.02;;;;;;;;;;4421594;32;20152;-69
2021/06/19 05:09:08;;;;;;;35.97;22.00;;;;;;;;;;4424609;32;20290;-69
2021/06/19 05:11:35;;;;;;;38.00;21.20;;;;;;;;;;4422962;32;20237;-69
2021/06/19 05:14:00;;;;;;;32.97;18.85;;;;;;;;;;4425519;32;20237;-69
2021/06/19 05:16:25;;;;;;;35.92;19.17;;;;;;;;;;4424917;32;20519;-71
2021/06/19 05:18:50;;;;;;;30.90;18.73;;;;;;;;;;4424764;32;20154;-70
2021/06/19 05:21:16;;;;;;;34.95;20.12;;;;;;;;;;4422911;32;20150;-69
2021/06/19 05:23:41;;;;;;;35.72;20.62;;;;;;;;;;4423600;32;20142;-70
2021/06/19 05:26:06;;;;;;;37.97;22.45;;;;;;;;;;4424017;32;20279;-69
2021/06/19 05:28:31;;;;;;;40.07;23.40;;;;;;;;;;4422820;32;20142;-70
2021/06/19 05:30:56;;;;;;;32.92;19.48;;;;;;;;;;4424619;32;20248;-69
2021/06/19 05:33:23;;;;;;;30.37;19.52;;;;;;;;;;4424520;32;20557;-70
2021/06/19 05:35:48;;;;;;;30.77;19.10;;;;;;;;;;4424374;32;20650;-70
2021/06/19 05:38:13;;;;;;;30.58;19.08;;;;;;;;;;4422810;32;20138;-69
2021/06/19 05:40:38;;;;;;;29.45;17.73;;;;;;;;;;4423395;32;20199;-70
2021/06/19 05:43:03;;;;;;;29.17;17.85;;;;;;;;;;4424438;32;20145;-69
2021/06/19 05:45:28;;;;;;;32.00;19.35;;;;;;;;;;4409315;32;20276;-70
2021/06/19 05:47:54;;;;;;;31.40;18.35;;;;;;;;;;4423844;32;20181;-69
2021/06/19 05:50:19;;;;;;;30.30;17.25;;;;;;;;;;4424774;32;20252;-68
2021/06/19 05:52:44;;;;;;;26.27;17.47;;;;;;;;;;4419647;32;20168;-70
2021/06/19 05:55:09;;;;;;;25.40;16.00;;;;;;;;;;4420334;32;20252;-70
2021/06/19 05:57:35;;;;;;;23.20;15.63;;;;;;;;;;4410932;32;20161;-70
2021/06/19 06:00:00;;;;;;;23.33;14.30;;;;;;;;;;4394561;32;20166;-71
2021/06/19 06:02:26;;;;;;;23.52;15.80;;;;;;;;;;4419316;32;20153;-70
2021/06/19 06:04:51;;;;;;;21.70;14.50;;;;;;;;;;4419974;32;20153;-70
2021/06/19 06:07:16;;;;;;;18.53;14.20;;;;;;;;;;4422011;32;20748;-70
2021/06/19 06:09:41;;;;;;;19.87;13.77;;;;;;;;;;4421820;32;20245;-70
2021/06/19 06:12:07;;;;;;;17.65;13.52;;;;;;;;;;4421208;32;20183;-70
2021/06/19 06:14:33;;;;;;;17.25;12.82;;;;;;;;;;4421169;32;20693;-70
2021/06/19 06:16:58;;;;;;;17.63;13.43;;;;;;;;;;4420507;32;20146;-70
2021/06/19 06:19:23;;;;;;;17.33;12.32;;;;;;;;;;4418077;32;20288;-69
2021/06/19 06:21:49;;;;;;;15.73;11.07;;;;;;;;;;4405805;32;20302;-72
2021/06/19 06:24:14;;;;;;;14.93;10.95;;;;;;;;;;4419911;32;20174;-70
2021/06/19 06:26:39;;;;;;;16.30;11.48;;;;;;;;;;4421693;32;20220;-70
2021/06/19 06:29:05;;;;;;;16.60;11.18;;;;;;;;;;4420322;32;20194;-71
2021/06/19 06:31:32;;;;;;;16.47;11.23;;;;;;;;;;4417842;32;20177;-71
2021/06/19 06:33:57;;;;;;;19.15;12.90;;;;;;;;;;4409668;32;21192;-71
2021/06/19 06:36:23;;;;;;;21.35;13.75;;;;;;;;;;4421403;32;20249;-71
2021/06/19 06:38:48;;;;;;;19.30;13.40;;;;;;;;;;4409735;32;20241;-71
2021/06/19 06:41:13;;;;;;;20.43;14.00;;;;;;;;;;4408688;32;20745;-70
2021/06/19 06:43:38;;;;;;;20.67;13.88;;;;;;;;;;4408150;32;20319;-71
2021/06/19 06:46:03;;;;;;;18.00;13.80;;;;;;;;;;4421293;32;20280;-71
2021/06/19 06:48:29;;;;;;;19.50;12.68;;;;;;;;;;4420746;32;20138;-71
2021/06/19 06:50:55;;;;;;;17.23;13.43;;;;;;;;;;4420224;32;20240;-71
2021/06/19 06:53:20;;;;;;;16.73;13.13;;;;;;;;;;4421081;32;20494;-70
2021/06/19 06:55:46;;;;;;;18.00;12.37;;;;;;;;;;4419849;32;20506;-72
2021/06/19 06:58:11;;;;;;;16.95;13.30;;;;;;;;;;4419231;32;20165;-71
2021/06/19 07:00:36;;;;;;;17.65;12.32;;;;;;;;;;4419727;32;20226;-71
2021/06/19 07:03:01;;;;;;;16.63;12.00;;;;;;;;;;4420197;32;20670;-71
2021/06/19 07:05:26;;;;;;;16.65;12.95;;;;;;;;;;4420865;32;20264;-72
2021/06/19 07:07:52;;;;;;;15.90;11.15;;;;;;;;;;4419448;32;20775;-71
2021/06/19 07:10:17;;;;;;;11.40;8.38;;;;;;;;;;4420535;32;20179;-72
2021/06/19 07:12:43;;;;;;;7.93;7.12;;;;;;;;;;4419791;32;20291;-72
2021/06/19 07:15:09;;;;;;;7.35;6.00;;;;;;;;;;4420180;32;20696;-72
2021/06/19 07:17:34;;;;;;;5.70;5.10;;;;;;;;;;4406650;32;20618;-72
2021/06/19 07:20:02;;;;;;;5.70;5.20;;;;;;;;;;4423231;32;20189;-72
2021/06/19 07:22:27;;;;;;;5.68;5.03;;;;;;;;;;4419219;32;20319;-72
2021/06/19 07:24:52;;;;;;;6.05;5.00;;;;;;;;;;4420356;32;20595;-72
2021/06/19 07:27:17;;;;;;;5.25;4.75;;;;;;;;;;4418151;32;20154;-71
2021/06/19 07:29:43;;;;;;;5.12;4.62;;;;;;;;;;4410897;32;20240;-72
2021/06/19 07:32:08;;;;;;;4.73;4.33;;;;;;;;;;4423409;32;20184;-72
2021/06/19 07:34:33;;;;;;;5.07;4.35;;;;;;;;;;4422749;32;20729;-71
2021/06/19 07:36:59;;;;;;;5.18;4.65;;;;;;;;;;4424712;32;20664;-72
2021/06/19 07:39:24;;;;;;;4.90;4.50;;;;;;;;;;4423081;32;20205;-72
2021/06/19 07:41:49;;;;;;;7.53;4.50;;;;;;;;;;4424558;32;20176;-72
2021/06/19 07:44:15;;;;;;;5.62;4.80;;;;;;;;;;4424085;32;20482;-72
2021/06/19 07:46:40;;;;;;;6.00;4.20;;;;;;;;;;4421117;32;20187;-73
2021/06/19 07:49:05;;;;;;;6.20;5.32;;;;;;;;;;4424453;32;20534;-73
2021/06/19 07:51:30;;;;;;;4.82;4.32;;;;;;;;;;4424303;32;20531;-72
2021/06/19 07:53:56;;;;;;;5.30;4.35;;;;;;;;;;4423678;32;20309;-73
2021/06/19 07:56:21;;;;;;;5.50;5.00;;;;;;;;;;4426850;32;20168;-73
2021/06/19 07:58:46;;;;;;;5.47;4.70;;;;;;;;;;4428402;32;20453;-73
2021/06/19 08:01:11;;;;;;;6.53;5.40;;;;;;;;;;4425789;32;20303;-73
2021/06/19 08:03:36;;;;;;;6.18;5.57;;;;;;;;;;4423143;32;20245;-73
2021/06/19 08:06:02;;;;;;;6.07;5.18;;;;;;;;;;4422615;32;20150;-71
2021/06/19 08:08:27;;;;;;;7.68;5.82;;;;;;;;;;4417188;32;20248;-72
2021/06/19 08:10:53;;;;;;;7.82;5.75;;;;;;;;;;4411255;32;20544;-73
2021/06/19 08:13:18;;;;;;;7.00;6.03;;;;;;;;;;4412433;32;20268;-73
2021/06/19 08:15:44;;;;;;;8.48;6.10;;;;;;;;;;4423704;32;20548;-73
2021/06/19 08:18:09;;;;;;;8.88;6.65;;;;;;;;;;4404211;32;20181;-73
2021/06/19 08:20:34;;;;;;;10.88;7.30;;;;;;;;;;4406885;32;20210;-73
2021/06/19 08:23:00;;;;;;;8.10;7.30;;;;;;;;;;4407158;32;20146;-73
2021/06/19 08:25:25;;;;;;;8.07;7.28;;;;;;;;;;4408335;32;20208;-73
2021/06/19 08:27:51;;;;;;;9.15;7.82;;;;;;;;;;4422711;32;20153;-73
2021/06/19 08:30:16;;;;;;;9.35;8.27;;;;;;;;;;4421435;32;20499;-72
2021/06/19 08:32:41;;;;;;;9.35;8.45;;;;;;;;;;4421849;32;20184;-72
2021/06/19 08:35:06;;;;;;;10.85;9.25;;;;;;;;;;4407908;32;20173;-73
2021/06/19 08:37:32;;;;;;;13.75;9.27;;;;;;;;;;4423224;32;20175;-72
2021/06/19 08:39:57;;;;;;;12.60;8.80;;;;;;;;;;4421017;32;20173;-72
2021/06/19 08:42:24;;;;;;;14.55;9.57;;;;;;;;;;4420466;32;20201;-72
2021/06/19 08:44:49;;;;;;;10.80;8.80;;;;;;;;;;4421693;32;20183;-73
2021/06/19 08:47:15;;;;;;;13.32;9.90;;;;;;;;;;4422714;32;20141;-73
2021/06/19 08:49:40;;;;;;;12.15;8.40;;;;;;;;;;4421720;32;20187;-72
2021/06/19 08:52:07;;;;;;;10.15;7.82;;;;;;;;;;4407169;32;20173;-72
2021/06/19 08:54:38;;;;;;;10.32;8.45;;;;;;;;;;4408181;32;20537;-72
2021/06/19 08:57:08;;;;;;;13.20;9.43;;;;;;;;;;4421817;32;20169;-72
2021/06/19 08:59:33;;;;;;;10.15;9.02;;;;;;;;;;4421745;32;20204;-71
2021/06/19 09:01:58;;;;;;;10.02;8.93;;;;;;;;;;4408221;32;20174;-72
2021/06/19 09:04:23;;;;;;;9.95;8.20;;;;;;;;;;4419563;32;21037;-71
2021/06/19 09:06:48;;;;;;;9.30;8.40;;;;;;;;;;4407656;32;20172;-71
2021/06/19 09:09:15;;;;;;;10.05;8.07;;;;;;;;;;4410059;32;20300;-72
2021/06/19 09:11:43;;;;;;;13.65;7.80;;;;;;;;;;4410436;32;20284;-72
2021/06/19 09:14:10;;;;;;;8.10;7.20;;;;;;;;;;4411291;32;20142;-71
2021/06/19 09:16:36;;;;;;;9.20;6.87;;;;;;;;;;4411275;32;20180;-71
2021/06/19 09:19:02;;;;;;;9.40;6.72;;;;;;;;;;4409212;32;20139;-71
2021/06/19 09:21:32;;;;;;;8.90;6.90;;;;;;;;;;4408262;32;20202;-70
2021/06/19 09:23:58;;;;;;;10.40;6.62;;;;;;;;;;4404854;32;20237;-71
2021/06/19 09:26:31;;;;;;;7.10;5.78;;;;;;;;;;4406578;32;20555;-71
2021/06/19 09:28:58;;;;;;;5.43;4.93;;;;;;;;;;4412132;32;20193;-71
2021/06/19 09:31:33;;;;;;;7.35;5.50;;;;;;;;;;4423278;32;20207;-72
2021/06/19 09:34:06;;;;;;;6.93;5.93;;;;;;;;;;4420700;32;20156;-72
2021/06/19 09:36:35;;;;;;;6.75;5.90;;;;;;;;;;4419988;32;20149;-72
2021/06/19 09:39:01;;;;;;;5.90;5.18;;;;;;;;;;4420097;32;20164;-71
2021/06/19 09:41:37;;;;;;;8.77;5.60;;;;;;;;;;4419932;32;20157;-72
2021/06/19 09:44:02;;;;;;;7.57;5.78;;;;;;;;;;4419045;32;20138;-72
2021/06/19 09:46:28;;;;;;;7.68;5.90;;;;;;;;;;4420578;32;20263;-72
2021/06/19 09:48:53;;;;;;;7.50;6.12;;;;;;;;;;4420418;32;20242;-72
2021/06/19 09:51:20;;;;;;;8.33;6.90;;;;;;;;;;4419740;32;20164;-72
2021/06/19 09:53:49;;;;;;;10.75;6.10;;;;;;;;;;4406757;32;20314;-72
2021/06/19 09:56:15;;;;;;;6.55;5.87;;;;;;;;;;4422325;32;20519;-72
2021/06/19 09:58:44;;;;;;;10.32;7.03;;;;;;;;;;4408412;32;20181;-72
2021/06/19 10:01:10;;;;;;;8.45;6.37;;;;;;;;;;4407834;32;20185;-72
2021/06/19 10:03:48;;;;;;;6.95;6.25;;;;;;;;;;4420935;32;20188;-72
2021/06/19 10:06:13;;;;;;;11.30;7.47;;;;;;;;;;4425217;32;20998;-72
2021/06/19 10:08:39;;;;;;;8.70;7.37;;;;;;;;;;4420755;32;20887;-71
2021/06/19 10:11:04;;;;;;;8.02;6.70;;;;;;;;;;4422939;32;20574;-72
2021/06/19 10:13:30;;;;;;;8.38;6.65;;;;;;;;;;4424978;32;20188;-71
2021/06/19 10:15:55;;;;;;;8.48;7.55;;;;;;;;;;4419916;32;21991;-73
2021/06/19 10:18:20;;;;;;;7.90;6.32;;;;;;;;;;4406830;32;20268;-72
2021/06/19 10:20:46;;;;;;;9.35;7.20;;;;;;;;;;4404980;32;20471;-72
2021/06/19 10:23:11;;;;;;;8.90;7.12;;;;;;;;;;4405734;32;20153;-73
2021/06/19 10:25:44;;;;;;;8.63;7.73;;;;;;;;;;4404064;32;20149;-73
2021/06/19 10:28:10;;;;;;;9.60;7.12;;;;;;;;;;4391174;32;20269;-72
2021/06/19 10:30:35;;;;;;;8.90;8.00;;;;;;;;;;4404695;32;20206;-71
2021/06/19 10:33:00;;;;;;;10.13;8.00;;;;;;;;;;4412286;32;20204;-71
2021/06/19 10:35:45;;;;;;;8.13;7.15;;;;;;;;;;4419835;32;20240;-71
2021/06/19 10:38:18;;;;;;;10.07;8.05;;;;;;;;;;4420838;32;20633;-71
2021/06/19 10:40:50;;;;;;;9.50;7.57;;;;;;;;;;4421064;32;20177;-71
2021/06/19 10:43:22;;;;;;;13.13;8.48;;;;;;;;;;4421342;32;20145;-71
2021/06/19 10:45:48;;;;;;;10.73;9.40;;;;;;;;;;4419300;32;20133;-71
2021/06/19 10:48:33;;;;;;;14.07;9.93;;;;;;;;;;4405907;32;20988;-71
2021/06/19 10:51:18;;;;;;;9.70;8.57;;;;;;;;;;4405185;32;20185;-72
2021/06/19 10:54:02;;;;;;;11.88;9.73;;;;;;;;;;4419185;32;20176;-71
2021/06/19 10:56:43;;;;;;;11.32;10.18;;;;;;;;;;4416577;32;20225;-71
2021/06/19 10:59:16;;;;;;;13.25;8.98;;;;;;;;;;4404270;32;20182;-72
2021/06/19 11:01:41;;;;;;;10.52;8.93;;;;;;;;;;4415574;32;20911;-72
2021/06/19 11:04:26;;;;;;;10.02;7.53;;;;;;;;;;4419327;32;20233;-71
2021/06/19 11:06:51;;;;;;;11.12;6.80;;;;;;;;;;4406392;32;20203;-72
2021/06/19 11:09:17;;;;;;;9.40;7.07;;;;;;;;;;4407953;32;20173;-71
2021/06/19 11:11:48;;;;;;;6.72;5.87;;;;;;;;;;4420358;32;20233;-72
2021/06/19 11:14:13;;;;;;;7.10;6.40;;;;;;;;;;4405779;32;20169;-72
2021/06/19 11:16:40;;;;;;;8.40;7.35;;;;;;;;;;4419707;32;20232;-71
2021/06/19 11:19:06;;;;;;;9.20;6.95;;;;;;;;;;4420795;32;20176;-72
2021/06/19 11:21:32;;;;;;;8.57;7.18;;;;;;;;;;4419681;32;20149;-72
2021/06/19 11:24:00;;;;;;;7.70;6.53;;;;;;;;;;4420994;32;20267;-72
2021/06/19 11:26:44;;;;;;;10.25;7.15;;;;;;;;;;4420964;32;20149;-72
2021/06/19 11:29:37;;;;;;;9.48;8.48;;;;;;;;;;4419248;32;20138;-71
2021/06/19 11:32:24;;;;;;;11.05;8.80;;;;;;;;;;4417162;32;20208;-72
2021/06/19 11:34:50;;;;;;;10.13;8.20;;;;;;;;;;4421583;32;20727;-71
2021/06/19 11:37:16;;;;;;;10.30;7.78;;;;;;;;;;4421622;32;20183;-73
2021/06/19 11:39:41;;;;;;;13.07;8.80;;;;;;;;;;4405720;32;20173;-71
2021/06/19 11:42:06;;;;;;;9.20;7.62;;;;;;;;;;4419341;32;20165;-73
2021/06/19 11:44:32;;;;;;;11.70;9.13;;;;;;;;;;4420422;32;20142;-71
2021/06/19 11:46:58;;;;;;;13.38;9.82;;;;;;;;;;4420730;32;21022;-73
2021/06/19 11:49:30;;;;;;;11.25;7.82;;;;;;;;;;4404929;32;20209;-72
2021/06/19 11:51:56;;;;;;;11.05;9.18;;;;;;;;;;4418537;32;20230;-73
2021/06/19 11:54:21;;;;;;;11.63;9.35;;;;;;;;;;4407245;32;20173;-71
2021/06/19 11:56:47;;;;;;;8.20;7.40;;;;;;;;;;4420309;32;20176;-72
2021/06/19 11:59:14;;;;;;;8.50;7.60;;;;;;;;;;4418836;32;20162;-73
2021/06/19 12:01:47;;;;;;;11.88;8.93;;;;;;;;;;4420736;32;20184;-73
2021/06/19 12:04:20;;;;;;;9.35;8.32;;;;;;;;;;4420399;32;20169;-72
2021/06/19 12:06:49;;;;;;;10.93;8.75;;;;;;;;;;4420207;32;20175;-72
2021/06/19 12:09:31;;;;;;;13.52;9.98;;;;;;;;;;4419353;32;20222;-71
2021/06/19 12:11:57;;;;;;;12.48;8.88;;;;;;;;;;4419992;32;20585;-72
2021/06/19 12:14:27;;;;;;;11.52;10.00;;;;;;;;;;4422308;32;21059;-71
2021/06/19 12:16:53;;;;;;;11.02;9.38;;;;;;;;;;4421957;32;20183;-71
2021/06/19 12:19:19;;;;;;;11.23;9.40;;;;;;;;;;4424508;32;20146;-71
2021/06/19 12:21:46;;;;;;;10.38;9.38;;;;;;;;;;4425651;32;20196;-72
2021/06/19 12:24:25;;;;;;;12.43;10.05;;;;;;;;;;4413827;32;20184;-71
2021/06/19 12:27:00;;;;;;;13.23;9.25;;;;;;;;;;4425777;32;20208;-71
2021/06/19 12:29:29;;;;;;;12.25;9.50;;;;;;;;;;4425673;32;20146;-72
2021/06/19 12:31:54;;;;;;;9.27;8.38;;;;;;;;;;4423918;32;20169;-72
2021/06/19 12:34:19;;;;;;;9.82;8.48;;;;;;;;;;4411916;32;20204;-71
2021/06/19 12:36:45;;;;;;;12.20;9.40;;;;;;;;;;4428049;32;20558;-73
2021/06/19 12:39:10;;;;;;;12.20;10.10;;;;;;;;;;4419782;32;20177;-72
2021/06/19 12:41:35;;;;;;;12.52;9.90;;;;;;;;;;4411310;32;20177;-73
2021/06/19 12:44:08;;;;;;;10.00;8.70;;;;;;;;;;4411676;32;20145;-72
2021/06/19 12:46:33;;;;;;;11.82;10.52;;;;;;;;;;4414072;32;20320;-72
2021/06/19 12:49:05;;;;;;;11.87;10.43;;;;;;;;;;4424125;32;20161;-72
2021/06/19 12:51:39;;;;;;;13.85;11.02;;;;;;;;;;4423182;32;20253;-72
2021/06/19 12:54:14;;;;;;;12.55;10.55;;;;;;;;;;4423718;32;20174;-73
2021/06/19 12:56:57;;;;;;;14.25;11.48;;;;;;;;;;4408422;32;20232;-73
2021/06/19 12:59:23;;;;;;;13.30;11.55;;;;;;;;;;4424817;32;20192;-72
2021/06/19 13:02:03;;;;;;;14.95;12.20;;;;;;;;;;4424235;32;20201;-73
2021/06/19 13:04:29;;;;;;;15.57;12.45;;;;;;;;;;4424338;32;20200;-72
2021/06/19 13:07:16;;;;;;;14.07;11.18;;;;;;;;;;4408605;32;20628;-72
2021/06/19 13:09:49;;;;;;;11.68;10.20;;;;;;;;;;4426216;32;21083;-72
2021/06/19 13:12:15;;;;;;;14.27;11.05;;;;;;;;;;4425141;32;20206;-72
2021/06/19 13:14:40;;;;;;;14.13;10.90;;;;;;;;;;4423199;32;20217;-71
2021/06/19 13:17:16;;;;;;;11.57;9.82;;;;;;;;;;4421361;32;20171;-75
2021/06/19 13:19:41;;;;;;;14.30;10.85;;;;;;;;;;4416766;32;20165;-72
2021/06/19 13:22:07;;;;;;;14.48;11.45;;;;;;;;;;4413275;32;20512;-73
2021/06/19 13:24:33;;;;;;;14.67;11.33;;;;;;;;;;4415208;32;20594;-72
2021/06/19 13:27:09;;;;;;;12.32;10.20;;;;;;;;;;4406266;32;20287;-72
2021/06/19 13:29:35;;;;;;;14.93;10.02;;;;;;;;;;4418067;32;20631;-73
2021/06/19 13:32:01;;;;;;;13.23;10.25;;;;;;;;;;4417553;32;20203;-72
2021/06/19 13:34:26;;;;;;;14.25;11.00;;;;;;;;;;4406717;32;20200;-73
2021/06/19 13:36:59;;;;;;;17.80;11.70;;;;;;;;;;4406490;32;20633;-72
2021/06/19 13:39:26;;;;;;;12.27;9.25;;;;;;;;;;4392602;32;20516;-73
2021/06/19 13:41:54;;;;;;;12.93;10.82;;;;;;;;;;4420362;32;20169;-75
2021/06/19 13:44:21;;;;;;;13.30;10.05;;;;;;;;;;4420191;32;20158;-73
2021/06/19 13:46:47;;;;;;;13.73;10.80;;;;;;;;;;4423715;32;20165;-72
2021/06/19 13:49:14;;;;;;;12.52;10.00;;;;;;;;;;4416122;32;20157;-73
2021/06/19 13:51:39;;;;;;;19.40;13.15;;;;;;;;;;4418324;32;20157;-72
2021/06/19 13:54:05;;;;;;;16.62;10.93;;;;;;;;;;4409124;32;20534;-73
2021/06/19 13:56:30;;;;;;;13.52;10.45;;;;;;;;;;4408518;32;20651;-73
2021/06/19 13:58:56;;;;;;;15.43;11.82;;;;;;;;;;4392044;32;20238;-74
2021/06/19 14:01:21;;;;;;;14.23;10.43;;;;;;;;;;4413876;32;20162;-74
2021/06/19 14:03:47;;;;;;;15.00;10.85;;;;;;;;;;4414645;32;20180;-73
2021/06/19 14:06:13;;;;;;;14.35;9.52;;;;;;;;;;4421744;32;20176;-71
2021/06/19 14:08:42;;;;;;;13.73;9.88;;;;;;;;;;4420183;32;20203;-73
2021/06/19 14:11:07;;;;;;;14.35;10.65;;;;;;;;;;4420002;32;20535;-72
2021/06/19 14:13:33;;;;;;;16.17;10.85;;;;;;;;;;4421535;32;20141;-72
2021/06/19 14:15:58;;;;;;;15.65;12.73;;;;;;;;;;4421598;32;20550;-73
2021/06/19 14:18:23;;;;;;;16.27;11.75;;;;;;;;;;4408993;32;20208;-74
2021/06/19 14:20:48;;;;;;;16.27;12.32;;;;;;;;;;4422057;32;20233;-73
2021/06/19 14:23:13;;;;;;;17.77;13.62;;;;;;;;;;4420412;32;20487;-73